Time;durP1;ratioP1;P1;durP2;ratioP2;P2;SDS_P1;SDS_P2;PMS_P1;PMS_P2;Temp;Humidity;BMP_temperature;BMP_pressure;BME280_temperature;BME280_humidity;BME280_pressure;Samples;Min_cycle;Max_cycle;Signal;HPM_P1;HPM_P2
2024/01/04 00:00:06;;;;;;;12.25;7.85;;;;;;;9.03;62.44;96904.41;10365825;28;20053;-50
2024/01/04 00:05:05;;;;;;;7.53;5.00;;;;;;;8.45;62.04;96825.53;10366448;28;20067;-48
2024/01/04 00:10:04;;;;;;;;;;;;;;;9.14;60.92;96896.56;10366194;28;20056;-50
2024/01/04 00:15:04;;;;;;;7.90;5.60;;;;;;;9.30;59.79;96898.16;10366121;28;20023;-49
2024/01/04 00:20:03;;;;;;;4.85;3.80;;;;;;;9.49;58.86;96898.84;10365696;28;20458;-51
2024/01/04 00:25:02;;;;;;;10.82;5.70;;;;;;;8.85;58.36;96755.34;10364566;28;20072;-49
2024/01/04 00:30:01;;;;;;;9.15;6.35;;;;;;;9.88;58.21;96912.19;10366397;28;20061;-49
2024/01/04 00:35:00;;;;;;;11.05;5.55;;;;;;;8.66;57.77;96722.78;10365931;28;20047;-50
2024/01/04 00:39:59;;;;;;;16.10;7.40;;;;;;;9.80;57.64;96902.81;10365185;28;20029;-51
2024/01/04 00:44:58;;;;;;;8.63;4.72;;;;;;;9.74;57.29;96927.91;10365812;28;20040;-51
2024/01/04 00:49:57;;;;;;;8.63;4.70;;;;;;;9.87;57.17;96926.03;10364583;28;20819;-49
2024/01/04 00:54:56;;;;;;;5.47;3.97;;;;;;;10.11;56.64;96911.06;10366003;28;20528;-49
2024/01/04 00:59:55;;;;;;;8.20;4.82;;;;;;;10.02;56.29;96893.03;10364691;28;20610;-49
2024/01/04 01:04:54;;;;;;;14.70;6.25;;;;;;;10.09;55.96;96894.66;10365241;28;20815;-48
2024/01/04 01:09:53;;;;;;;5.20;3.53;;;;;;;10.05;56.20;96908.53;10365381;28;20147;-48
2024/01/04 01:14:52;;;;;;;5.90;3.95;;;;;;;10.44;54.96;96932.25;10364740;28;20061;-49
2024/01/04 01:19:51;;;;;;;11.23;5.13;;;;;;;10.37;55.53;96908.13;10364122;28;20127;-49
2024/01/04 01:24:50;;;;;;;7.88;4.55;;;;;;;10.46;55.33;96935.69;10364631;28;20124;-50
2024/01/04 01:29:49;;;;;;;;;;;;;;;10.46;54.86;96951.25;10364922;28;20067;-48
2024/01/04 01:34:48;;;;;;;7.90;3.70;;;;;;;10.35;55.15;96918.50;10363495;28;19916;-50
2024/01/04 01:39:48;;;;;;;7.68;4.95;;;;;;;10.04;54.70;96878.31;10363640;28;20147;-49
2024/01/04 01:44:47;;;;;;;9.05;5.07;;;;;;;10.50;54.27;96945.13;10362909;28;20064;-48
2024/01/04 01:49:46;;;;;;;10.73;6.85;;;;;;;10.46;55.42;96933.94;10361834;28;20055;-48
2024/01/04 01:54:47;;;;;;;12.05;7.15;;;;;;;10.01;56.20;96938.84;10363337;28;20118;-49
2024/01/04 01:59:46;;;;;;;10.73;7.13;;;;;;;9.74;56.99;96934.81;10363085;28;20439;-50
2024/01/04 02:04:45;;;;;;;10.32;7.40;;;;;;;9.53;57.33;96922.94;10361769;28;20072;-49
2024/01/04 02:09:44;;;;;;;7.47;5.28;;;;;;;9.44;58.46;96935.97;10360386;28;20033;-48
2024/01/04 02:14:44;;;;;;;8.35;5.72;;;;;;;9.26;58.16;96937.00;10364056;28;20052;-48
2024/01/04 02:19:44;;;;;;;8.00;5.93;;;;;;;8.48;59.12;96838.47;10362101;28;20076;-48
2024/01/04 02:24:44;;;;;;;11.68;6.50;;;;;;;8.88;59.48;96914.88;10362264;28;20897;-50
2024/01/04 02:29:43;;;;;;;10.75;7.20;;;;;;;8.70;60.97;96928.81;10362906;28;20178;-48
2024/01/04 02:34:42;;;;;;;30.70;14.68;;;;;;;8.44;60.99;96916.91;10362936;28;20060;-49
2024/01/04 02:39:41;;;;;;;23.38;13.98;;;;;;;8.23;61.64;96897.22;10361770;28;20070;-48
2024/01/04 02:44:41;;;;;;;43.78;20.65;;;;;;;8.12;62.13;96900.72;10362807;28;20033;-48
2024/01/04 02:49:41;;;;;;;20.67;12.35;;;;;;;8.14;62.56;96891.25;10360571;28;20095;-47
2024/01/04 02:54:40;;;;;;;24.33;14.82;;;;;;;8.04;63.00;96888.69;10361205;28;20048;-48
2024/01/04 02:59:39;;;;;;;13.57;9.00;;;;;;;7.75;64.31;96899.13;10361666;28;20121;-48
2024/01/04 03:04:42;;;;;;;9.23;6.88;;;;;;;7.60;64.80;96871.66;10361911;28;20466;-49
2024/01/04 03:09:41;;;;;;;12.18;7.35;;;;;;;7.82;64.78;96887.06;10361177;28;20068;-48
2024/01/04 03:14:39;;;;;;;11.55;6.18;;;;;;;7.28;65.11;96796.03;10367677;28;20047;-48
2024/01/04 03:19:38;;;;;;;9.27;6.55;;;;;;;7.64;65.47;96852.72;10368329;28;20025;-48
2024/01/04 03:24:37;;;;;;;16.45;9.65;;;;;;;7.77;66.04;96879.34;10368733;28;20131;-48
2024/01/04 03:29:36;;;;;;;9.48;7.10;;;;;;;7.82;66.14;96885.34;10368249;28;20119;-48
2024/01/04 03:34:35;;;;;;;8.95;6.80;;;;;;;7.64;66.31;96847.56;10368709;28;20045;-47
2024/01/04 03:39:34;;;;;;;20.58;13.05;;;;;;;7.63;67.07;96832.06;10367821;28;20120;-48
2024/01/04 03:44:33;;;;;;;18.83;11.52;;;;;;;7.61;67.07;96846.69;10368147;28;20112;-48
2024/01/04 03:49:32;;;;;;;30.65;18.85;;;;;;;7.16;67.13;96795.19;10367271;28;20068;-48
2024/01/04 03:54:31;;;;;;;34.38;20.75;;;;;;;7.42;67.51;96858.81;10368747;28;20061;-48
2024/01/04 03:59:30;;;;;;;32.25;15.98;;;;;;;7.25;67.51;96833.03;10364707;28;20028;-47
2024/01/04 04:04:29;;;;;;;23.75;15.55;;;;;;;7.22;68.21;96859.69;10367042;28;20025;-51
2024/01/04 04:09:28;;;;;;;142.57;67.47;;;;;;;7.05;70.00;96871.75;10367104;28;20128;-48
2024/01/04 04:14:27;;;;;;;38.25;22.70;;;;;;;7.03;70.52;96868.34;10367261;28;20064;-50
2024/01/04 04:19:27;;;;;;;32.28;19.45;;;;;;;6.99;71.46;96856.31;10366435;28;20058;-48
2024/01/04 04:24:26;;;;;;;27.65;17.60;;;;;;;6.93;70.79;96836.50;10364425;28;20095;-50
2024/01/04 04:29:25;;;;;;;24.98;16.50;;;;;;;7.08;70.57;96833.06;10365173;28;20044;-46
2024/01/04 04:34:24;;;;;;;20.75;13.77;;;;;;;7.07;70.80;96827.91;10366831;28;20155;-47
2024/01/04 04:39:23;;;;;;;18.00;12.07;;;;;;;7.17;70.97;96847.66;10365434;28;20126;-47
2024/01/04 04:44:22;;;;;;;25.08;15.35;;;;;;;6.24;71.40;96700.00;10366240;28;20567;-47
2024/01/04 04:49:21;;;;;;;21.25;13.77;;;;;;;6.62;72.97;96851.16;10365326;28;20505;-47
2024/01/04 04:54:20;;;;;;;20.38;11.52;;;;;;;6.10;72.70;96779.00;10365437;28;20029;-47
2024/01/04 04:59:19;;;;;;;16.30;10.73;;;;;;;6.78;72.75;96881.25;10364866;28;20422;-48
2024/01/04 05:04:18;;;;;;;19.55;11.32;;;;;;;6.82;71.93;96857.19;10365032;28;20829;-47
2024/01/04 05:09:17;;;;;;;17.10;11.50;;;;;;;6.85;71.73;96858.03;10362635;28;20048;-48
2024/01/04 05:14:16;;;;;;;23.48;13.70;;;;;;;6.56;72.07;96797.91;10364666;28;20025;-47
2024/01/04 05:19:15;;;;;;;27.80;15.68;;;;;;;7.15;71.36;96860.56;10364055;28;20112;-48
2024/01/04 05:24:14;;;;;;;25.15;15.32;;;;;;;7.22;71.80;96851.09;10364106;28;20044;-47
2024/01/04 05:29:13;;;;;;;34.38;21.65;;;;;;;7.40;71.50;96891.50;10363411;28;20064;-48
2024/01/04 05:34:12;;;;;;;34.17;20.90;;;;;;;7.29;72.34;96886.34;10361660;28;20111;-47
2024/01/04 05:39:11;;;;;;;27.65;17.48;;;;;;;7.26;71.99;96878.59;10363196;28;20124;-47
2024/01/04 05:44:10;;;;;;;27.42;17.42;;;;;;;7.31;71.54;96889.78;10362492;28;20037;-50
2024/01/04 05:49:09;;;;;;;32.05;20.52;;;;;;;7.52;71.59;96885.44;10362010;28;20108;-48
2024/01/04 05:54:09;;;;;;;29.35;18.48;;;;;;;7.53;71.12;96872.53;10360508;28;20060;-47
2024/01/04 05:59:08;;;;;;;38.95;24.27;;;;;;;7.68;71.68;96875.94;10362295;28;20108;-49
2024/01/04 06:04:07;;;;;;;40.15;26.10;;;;;;;7.47;71.57;96839.00;10363076;28;20427;-47
2024/01/04 06:09:06;;;;;;;53.60;32.85;;;;;;;7.62;71.06;96851.88;10362362;28;20138;-47
2024/01/04 06:14:06;;;;;;;62.63;34.83;;;;;;;7.65;71.31;96841.50;10360898;28;20657;-47
2024/01/04 06:19:05;;;;;;;56.35;34.25;;;;;;;7.95;70.62;96874.97;10362037;28;20076;-50
2024/01/04 06:24:04;;;;;;;60.88;37.08;;;;;;;8.10;70.84;96898.13;10362476;28;20064;-48
2024/01/04 06:29:03;;;;;;;;;;;;;;;8.14;70.62;96888.66;10364346;28;20075;-48
2024/01/04 06:34:02;;;;;;;82.95;48.60;;;;;;;7.99;70.73;96889.56;10362373;28;19947;-49
2024/01/04 06:39:01;;;;;;;86.47;48.65;;;;;;;8.12;70.39;96874.88;10362893;28;20124;-48
2024/01/04 06:44:00;;;;;;;91.82;53.38;;;;;;;8.22;70.68;96898.06;10362427;28;20033;-49
2024/01/04 06:48:59;;;;;;;;;;;;;;;8.34;70.19;96892.00;10366598;28;20064;-49
2024/01/04 06:53:58;;;;;;;106.18;55.05;;;;;;;8.49;69.98;96889.28;10370308;28;19913;-49
2024/01/04 06:58:57;;;;;;;118.22;69.57;;;;;;;8.44;70.38;96879.88;10369245;28;20037;-48
2024/01/04 07:03:56;;;;;;;121.03;66.47;;;;;;;8.38;70.27;96867.81;10369761;28;20094;-48
2024/01/04 07:08:54;;;;;;;115.18;61.90;;;;;;;8.58;69.56;96870.28;10369570;28;20155;-50
2024/01/04 07:13:53;;;;;;;113.57;65.85;;;;;;;8.78;70.09;96870.09;10368911;28;20043;-50
2024/01/04 07:18:52;;;;;;;148.48;88.53;;;;;;;8.53;69.46;96794.47;10366405;28;20057;-50
2024/01/04 07:23:51;;;;;;;130.77;80.38;;;;;;;8.82;69.88;96852.84;10367124;28;20037;-49
2024/01/04 07:28:50;;;;;;;104.65;58.28;;;;;;;9.05;70.03;96844.88;10366851;28;20120;-48
2024/01/04 07:33:49;;;;;;;93.15;56.97;;;;;;;9.02;68.76;96839.72;10368213;28;20029;-48
2024/01/04 07:38:48;;;;;;;77.78;44.17;;;;;;;9.29;69.19;96833.44;10373378;28;20180;-48
2024/01/04 07:43:47;;;;;;;70.93;39.72;;;;;;;9.39;69.33;96813.47;10350454;28;20508;-49
2024/01/04 07:48:46;;;;;;;;;;;;;;;9.62;67.96;96820.97;10358104;28;20194;-48
2024/01/04 07:53:45;;;;;;;65.78;38.05;;;;;;;9.70;67.81;96811.38;10365310;28;20039;-48
2024/01/04 07:58:44;;;;;;;;;;;;;;;9.80;68.20;96853.59;10366546;28;21044;-49
2024/01/04 08:03:43;;;;;;;111.47;70.43;;;;;;;8.80;67.61;96668.34;10367150;28;20698;-48
2024/01/04 08:08:42;;;;;;;92.78;58.72;;;;;;;9.28;67.71;96713.50;10350592;28;20020;-48
2024/01/04 08:13:41;;;;;;;83.95;51.28;;;;;;;9.97;66.54;96792.00;10363499;28;20047;-47
2024/01/04 08:18:40;;;;;;;90.80;53.17;;;;;;;10.14;66.85;96821.16;10363063;28;20040;-48
2024/01/04 08:23:41;;;;;;;89.30;49.20;;;;;;;10.08;66.88;96784.94;10361509;28;20533;-47
2024/01/04 08:28:40;;;;;;;71.57;42.17;;;;;;;10.50;65.44;96829.25;10363410;28;20115;-48
2024/01/04 08:33:38;;;;;;;75.47;45.67;;;;;;;9.71;65.34;96650.75;10367062;28;20039;-47
2024/01/04 08:38:37;;;;;;;56.35;33.42;;;;;;;10.87;64.69;96787.19;10364090;28;20037;-47
2024/01/04 08:43:36;;;;;;;43.30;26.38;;;;;;;11.11;63.51;96785.00;10364556;28;20788;-47
2024/01/04 08:48:35;;;;;;;38.33;21.33;;;;;;;11.23;62.51;96761.41;10371227;28;20035;-49
2024/01/04 08:53:34;;;;;;;31.20;17.65;;;;;;;11.04;61.00;96728.00;10372539;28;20033;-48
2024/01/04 08:58:33;;;;;;;23.35;14.25;;;;;;;11.30;58.71;96759.53;10366012;28;20055;-49
2024/01/04 09:03:32;;;;;;;25.60;19.30;;;;;;;11.35;59.13;96736.94;10371093;28;20036;-48
2024/01/04 09:08:33;;;;;;;20.50;13.00;;;;;;;11.69;58.26;96752.69;10368799;28;20039;-50
2024/01/04 09:13:32;;;;;;;9.60;5.95;;;;;;;11.86;55.73;96741.91;10362977;28;20124;-47
2024/01/04 09:18:33;;;;;;;;;;;;;;;12.05;54.82;96727.59;10361017;28;20171;-48
2024/01/04 09:23:31;;;;;;;;;;;;;;;12.34;53.06;96727.81;10363548;28;20493;-48
2024/01/04 09:28:30;;;;;;;6.22;4.22;;;;;;;12.51;52.30;96702.25;10364820;28;19963;-48
2024/01/04 09:33:29;;;;;;;4.47;4.07;;;;;;;12.57;51.64;96683.84;10369683;28;20048;-48
2024/01/04 09:38:29;;;;;;;6.03;4.80;;;;;;;12.88;51.18;96688.22;10358337;28;20115;-48
2024/01/04 09:43:31;;;;;;;9.60;5.00;;;;;;;13.11;50.17;96641.56;10362896;28;20124;-48
2024/01/04 09:48:33;;;;;;;5.97;4.68;;;;;;;13.71;49.91;96667.63;10359481;28;20056;-49
2024/01/04 09:53:33;;;;;;;5.68;5.13;;;;;;;14.30;48.83;96662.25;10367450;28;20111;-48
2024/01/04 09:58:31;;;;;;;;;;;;;;;14.79;47.06;96672.81;10372142;28;20039;-49
2024/01/04 10:03:31;;;;;;;7.47;4.97;;;;;;;14.97;45.68;96664.31;10367309;28;19913;-48
2024/01/04 10:08:34;;;;;;;5.85;5.35;;;;;;;15.24;44.96;96648.53;10364235;28;20852;-49
2024/01/04 10:13:35;;;;;;;6.38;5.13;;;;;;;15.02;43.95;96625.81;10361184;28;20665;-48
2024/01/04 10:18:35;;;;;;;6.28;5.35;;;;;;;15.15;44.86;96627.97;10361610;28;20151;-50
2024/01/04 10:23:34;;;;;;;5.28;4.72;;;;;;;14.13;44.05;96450.66;10365668;28;20155;-48
2024/01/04 10:28:35;;;;;;;;;;;;;;;15.08;44.08;96601.19;10369625;28;20031;-48
2024/01/04 10:33:35;;;;;;;6.10;5.53;;;;;;;15.39;44.53;96600.06;10365996;28;20414;-49
2024/01/04 10:38:36;;;;;;;5.80;5.30;;;;;;;15.61;43.97;96577.38;10376475;28;20828;-50
2024/01/04 10:43:35;;;;;;;7.15;5.38;;;;;;;15.70;43.56;96560.47;10373283;28;20474;-50
2024/01/04 10:48:36;;;;;;;7.75;6.88;;;;;;;16.09;43.13;96550.16;10373991;28;20124;-48
2024/01/04 10:53:36;;;;;;;6.82;6.22;;;;;;;16.50;41.56;96557.97;10372897;28;20115;-48
2024/01/04 10:58:36;;;;;;;6.45;5.75;;;;;;;16.69;39.88;96533.59;10370924;28;20589;-49
2024/01/04 11:03:36;;;;;;;5.90;5.40;;;;;;;16.58;40.11;96509.63;10366340;28;20119;-49
2024/01/04 11:08:36;;;;;;;6.53;5.70;;;;;;;16.57;39.72;96511.41;10364975;28;20124;-51
2024/01/04 11:13:35;;;;;;;7.70;5.25;;;;;;;16.48;39.99;96502.19;10369402;28;20142;-49
2024/01/04 11:19:09;;;;;;;6.25;5.65;;;;;;;16.02;39.51;96490.28;10370991;28;20148;-49
2024/01/04 11:24:22;;;;;;;10.40;5.40;;;;;;;16.01;40.99;96454.56;10367344;28;20128;-48
2024/01/04 11:29:23;;;;;;;6.78;5.80;;;;;;;15.89;40.23;96393.16;10368929;28;20107;-48
2024/01/04 11:34:24;;;;;;;5.47;5.00;;;;;;;16.66;40.36;96463.84;10363589;28;20076;-49
2024/01/04 11:39:26;;;;;;;7.20;6.63;;;;;;;16.75;39.63;96446.88;10366075;28;20480;-48
2024/01/04 11:44:35;;;;;;;7.88;6.20;;;;;;;17.08;39.45;96464.59;10376574;28;20120;-48
2024/01/04 11:49:35;;;;;;;10.48;5.85;;;;;;;17.35;38.54;96436.16;10377088;28;20131;-49
2024/01/04 11:54:36;;;;;;;6.40;5.90;;;;;;;17.45;38.18;96408.56;10374247;28;20578;-50
2024/01/04 11:59:35;;;;;;;6.47;5.53;;;;;;;17.82;37.33;96425.09;10370087;28;20112;-48
2024/01/04 12:04:35;;;;;;;6.22;5.60;;;;;;;17.88;36.81;96424.78;10373390;28;20029;-47
2024/01/04 12:09:34;;;;;;;5.57;4.97;;;;;;;18.04;36.88;96443.22;10362590;28;20125;-48
2024/01/04 12:14:34;;;;;;;6.55;5.95;;;;;;;17.49;36.19;96393.53;10370470;28;20112;-48
2024/01/04 12:19:33;;;;;;;6.43;5.82;;;;;;;17.37;36.11;96345.16;10370161;28;20132;-48
2024/01/04 12:24:33;;;;;;;7.40;6.70;;;;;;;18.12;35.81;96433.16;10369368;28;20060;-48
2024/01/04 12:29:32;;;;;;;5.80;5.30;;;;;;;17.73;35.79;96420.28;10371480;28;20121;-49
2024/01/04 12:34:30;;;;;;;6.10;5.50;;;;;;;16.65;37.54;96458.69;10365879;28;20024;-50
2024/01/04 12:39:31;;;;;;;5.78;5.10;;;;;;;14.73;41.91;96315.25;10377002;28;20032;-49
2024/01/04 12:44:30;;;;;;;8.13;6.70;;;;;;;15.03;43.42;96435.94;10371985;28;20123;-50
2024/01/04 12:49:30;;;;;;;;;;;;;;;14.80;45.99;96474.28;10374368;28;20512;-49
2024/01/04 12:54:28;;;;;;;5.70;5.30;;;;;;;14.18;49.59;96496.53;10373260;28;20282;-49
2024/01/04 12:59:27;;;;;;;;;;;;;;;13.35;52.17;96493.22;10361017;28;20141;-49
2024/01/04 13:04:26;;;;;;;7.00;6.07;;;;;;;13.03;54.13;96487.28;10362152;28;19920;-50
2024/01/04 13:09:25;;;;;;;6.30;5.75;;;;;;;12.99;55.70;96495.25;10368671;28;20033;-48
2024/01/04 13:14:24;;;;;;;7.88;7.13;;;;;;;12.83;57.21;96505.28;10374023;28;20722;-47
2024/01/04 13:19:23;;;;;;;7.53;6.00;;;;;;;12.58;63.01;96516.41;10367767;28;20742;-48
2024/01/04 13:24:22;;;;;;;8.18;6.82;;;;;;;11.79;70.12;96520.25;10363986;28;20144;-48
2024/01/04 13:29:21;;;;;;;8.98;6.03;;;;;;;11.18;70.73;96508.78;10367646;28;20102;-49
2024/01/04 13:34:20;;;;;;;13.20;6.97;;;;;;;11.07;71.98;96508.16;10364538;28;20624;-49
2024/01/04 13:39:19;;;;;;;152.05;60.80;;;;;;;11.43;71.25;96548.88;10368539;28;20063;-50
2024/01/04 13:44:18;;;;;;;72.05;32.88;;;;;;;10.75;73.00;96378.25;10365540;28;20036;-47
2024/01/04 13:49:18;;;;;;;17.20;9.82;;;;;;;11.75;73.06;96521.22;10359429;28;20037;-49
2024/01/04 13:54:18;;;;;;;17.42;8.73;;;;;;;11.75;73.69;96487.44;10357819;28;20545;-49
2024/01/04 13:59:18;;;;;;;15.13;8.00;;;;;;;11.87;73.13;96513.09;10365366;28;20417;-48
2024/01/04 14:04:16;;;;;;;10.63;7.28;;;;;;;10.79;72.52;96376.41;10363994;28;20135;-49
2024/01/04 14:09:18;;;;;;;15.43;9.85;;;;;;;12.10;70.90;96631.25;10354780;28;20037;-48
2024/01/04 14:14:17;;;;;;;8.27;4.93;;;;;;;11.02;75.96;96593.94;10358162;28;20147;-49
2024/01/04 14:19:16;;;;;;;9.60;5.50;;;;;;;10.02;85.97;96693.47;10374921;28;20041;-50
2024/01/04 14:24:15;;;;;;;9.82;5.70;;;;;;;8.90;93.19;96688.03;10359278;28;20139;-49
2024/01/04 14:29:14;;;;;;;12.75;6.45;;;;;;;8.60;99.96;96728.91;10367794;28;20021;-51
2024/01/04 14:34:13;;;;;;;9.85;6.03;;;;;;;8.52;100.00;96749.63;10372737;28;20132;-51
2024/01/04 14:39:21;;;;;;;9.98;6.30;;;;;;;8.43;100.00;96715.25;10373249;28;20144;-49
2024/01/04 14:44:21;;;;;;;10.85;6.40;;;;;;;8.13;100.00;96571.66;10373562;28;20087;-48
2024/01/04 14:49:20;;;;;;;20.75;12.13;;;;;;;9.03;100.00;96735.34;10374220;28;20120;-50
2024/01/04 14:54:19;;;;;;;17.45;9.98;;;;;;;8.80;100.00;96704.56;10374916;28;20127;-48
2024/01/04 14:59:19;;;;;;;25.63;14.05;;;;;;;8.36;100.00;96670.50;10369188;28;20120;-49
2024/01/04 15:04:18;;;;;;;20.70;14.13;;;;;;;8.76;100.00;96718.38;10375022;28;20115;-47
2024/01/04 15:09:17;;;;;;;26.30;15.75;;;;;;;8.70;100.00;96714.13;10368067;28;20025;-48
2024/01/04 15:14:16;;;;;;;34.17;26.02;;;;;;;8.44;100.00;96681.66;10368464;28;20043;-50
2024/01/04 15:19:15;;;;;;;53.78;36.47;;;;;;;8.30;100.00;96717.97;10369717;28;20021;-50
2024/01/04 15:24:13;;;;;;;41.65;29.80;;;;;;;8.30;100.00;96735.19;10378534;28;20106;-49
2024/01/04 15:29:12;;;;;;;19.30;12.43;;;;;;;8.04;100.00;96717.31;10370237;28;20075;-51
2024/01/04 15:34:11;;;;;;;21.20;16.15;;;;;;;8.24;100.00;96768.84;10373052;28;20026;-48
2024/01/04 15:39:11;;;;;;;29.58;20.23;;;;;;;7.80;100.00;96750.22;10378051;28;20457;-49
2024/01/04 15:44:11;;;;;;;19.10;14.80;;;;;;;7.65;100.00;96735.66;10378173;28;20107;-49
2024/01/04 15:49:10;;;;;;;14.63;10.50;;;;;;;7.57;100.00;96760.66;10380442;28;20427;-49
2024/01/04 15:54:10;;;;;;;12.88;8.95;;;;;;;7.65;100.00;96784.72;10378316;28;20127;-48
2024/01/04 15:59:09;;;;;;;11.10;6.82;;;;;;;7.75;100.00;96813.91;10376494;28;20060;-49
2024/01/04 16:04:09;;;;;;;;;;;;;;;7.64;100.00;96814.00;10370090;28;20073;-48
2024/01/04 16:09:09;;;;;;;7.85;5.90;;;;;;;7.64;100.00;96820.88;10368478;28;20003;-51
2024/01/04 16:14:08;;;;;;;9.90;5.93;;;;;;;7.46;100.00;96811.47;10373594;28;20055;-50
2024/01/04 16:19:07;;;;;;;8.73;6.90;;;;;;;7.48;100.00;96848.47;10358649;28;20091;-49
2024/01/04 16:24:07;;;;;;;9.77;6.20;;;;;;;7.45;100.00;96844.19;10373487;28;20069;-48
2024/01/04 16:29:06;;;;;;;8.02;5.50;;;;;;;7.55;100.00;96867.38;10372663;28;20121;-50
2024/01/04 16:34:05;;;;;;;8.63;6.18;;;;;;;7.55;100.00;96862.22;10365276;28;20097;-48
2024/01/04 16:39:04;;;;;;;7.30;5.05;;;;;;;7.03;100.00;96766.00;10365404;28;20124;-50
2024/01/04 16:44:03;;;;;;;8.02;5.22;;;;;;;7.55;100.00;96868.25;10369480;28;20021;-50
2024/01/04 16:49:03;;;;;;;6.50;4.30;;;;;;;7.59;100.00;96874.25;10367948;28;20063;-48
2024/01/04 16:54:02;;;;;;;7.38;4.80;;;;;;;7.73;100.00;96898.28;10366539;28;20064;-49
2024/01/04 16:59:01;;;;;;;22.38;16.05;;;;;;;7.64;100.00;96888.00;10369461;28;20119;-48
2024/01/04 17:04:00;;;;;;;14.80;10.52;;;;;;;7.70;100.00;96897.47;10364757;28;20075;-47
2024/01/04 17:08:59;;;;;;;15.23;9.57;;;;;;;7.73;100.00;96897.44;10363132;28;20041;-50
2024/01/04 17:13:58;;;;;;;13.50;9.55;;;;;;;7.59;100.00;96880.28;10356923;28;20512;-50
2024/01/04 17:18:57;;;;;;;15.48;10.98;;;;;;;7.58;100.00;96888.88;10360933;28;20421;-48
2024/01/04 17:23:57;;;;;;;13.63;10.93;;;;;;;7.57;100.00;96907.81;10354128;28;20061;-49
2024/01/04 17:28:56;;;;;;;24.48;17.33;;;;;;;7.25;100.00;96856.25;10354659;28;20116;-50
2024/01/04 17:33:54;;;;;;;31.02;20.65;;;;;;;7.46;100.00;96909.56;10353916;28;20040;-49
2024/01/04 17:38:53;;;;;;;21.10;15.18;;;;;;;7.41;100.00;96937.13;10362983;28;20048;-48
2024/01/04 17:43:52;;;;;;;19.80;14.00;;;;;;;7.43;100.00;96945.72;10351326;28;20112;-49
2024/01/04 17:48:55;;;;;;;15.93;11.02;;;;;;;7.38;100.00;96970.63;10360367;28;20039;-50
2024/01/04 17:53:54;;;;;;;10.85;8.70;;;;;;;7.33;100.00;96975.78;10353305;28;20609;-49
2024/01/04 17:58:53;;;;;;;11.48;8.07;;;;;;;6.73;100.00;96887.28;10351999;28;20116;-50
2024/01/04 18:03:52;;;;;;;6.93;5.72;;;;;;;7.23;100.00;96987.00;10358350;28;20467;-49
2024/01/04 18:08:51;;;;;;;10.35;8.60;;;;;;;7.17;100.00;96987.88;10362542;28;20017;-48
2024/01/04 18:13:50;;;;;;;10.80;7.88;;;;;;;6.92;100.00;96968.06;10356992;28;20052;-50
2024/01/04 18:18:49;;;;;;;22.60;16.05;;;;;;;7.09;100.00;97020.53;10361548;28;20031;-48
2024/01/04 18:23:48;;;;;;;73.28;48.78;;;;;;;7.04;100.00;97037.72;10356105;28;20048;-48
2024/01/04 18:28:47;;;;;;;78.70;57.38;;;;;;;6.66;100.00;97011.88;10356003;28;20035;-48
2024/01/04 18:33:50;;;;;;;90.18;59.42;;;;;;;6.81;100.00;97066.91;10356153;28;20490;-48
2024/01/04 18:38:49;;;;;;;89.78;57.60;;;;;;;6.50;100.00;97013.53;10356552;28;20137;-50
2024/01/04 18:43:48;;;;;;;107.25;74.68;;;;;;;6.54;100.00;97039.34;10362075;28;20131;-51
2024/01/04 18:48:47;;;;;;;113.15;80.15;;;;;;;6.30;100.00;97023.75;10368663;28;20021;-49
2024/01/04 18:53:46;;;;;;;;;;;;;;;6.41;100.00;97055.59;10367740;28;20059;-48
2024/01/04 18:58:45;;;;;;;74.63;51.28;;;;;;;6.35;100.00;97048.72;10363963;28;19991;-48
2024/01/04 19:03:44;;;;;;;61.50;40.50;;;;;;;6.31;100.00;97061.56;10365054;28;20149;-49
2024/01/04 19:08:43;;;;;;;51.40;33.03;;;;;;;5.91;100.00;97033.03;10367118;28;20104;-51
2024/01/04 19:13:42;;;;;;;81.40;49.38;;;;;;;6.12;100.00;97094.13;10366104;28;20029;-49
2024/01/04 19:18:43;;;;;;;50.25;34.03;;;;;;;6.08;100.00;97124.13;10364715;28;20040;-50
2024/01/04 19:23:42;;;;;;;55.97;37.17;;;;;;;5.80;100.00;97094.75;10362684;28;20072;-49
2024/01/04 19:28:41;;;;;;;75.00;48.47;;;;;;;5.50;100.00;97049.91;10362361;28;20121;-49
2024/01/04 19:33:40;;;;;;;64.88;43.78;;;;;;;5.82;100.00;97105.94;10368897;28;20037;-49
2024/01/04 19:38:39;;;;;;;79.20;50.70;;;;;;;5.77;100.00;97115.34;10365598;28;20135;-49
2024/01/04 19:43:38;;;;;;;74.50;52.17;;;;;;;5.54;100.00;97107.44;10363790;28;20045;-51
2024/01/04 19:48:37;;;;;;;46.95;30.52;;;;;;;5.26;100.00;97107.19;10367063;28;20029;-49
2024/01/04 19:53:36;;;;;;;40.10;28.27;;;;;;;5.45;100.00;97117.63;10365613;28;20068;-51
2024/01/04 19:58:35;;;;;;;35.60;23.13;;;;;;;5.45;100.00;97135.66;10366479;28;20120;-49
2024/01/04 20:03:34;;;;;;;45.97;31.13;;;;;;;5.52;100.00;97150.28;10368105;28;20053;-51
2024/01/04 20:08:33;;;;;;;40.60;26.55;;;;;;;5.55;100.00;97155.47;10365554;28;20032;-49
2024/01/04 20:13:32;;;;;;;44.90;31.10;;;;;;;5.50;100.00;97139.13;10364409;28;20071;-49
2024/01/04 20:18:31;;;;;;;63.15;44.45;;;;;;;5.49;100.00;97143.41;10364362;28;20063;-49
2024/01/04 20:23:30;;;;;;;56.10;41.58;;;;;;;5.40;100.00;97140.75;10364913;28;20123;-48
2024/01/04 20:28:29;;;;;;;53.53;36.70;;;;;;;5.47;100.00;97160.53;10365696;28;20104;-49
2024/01/04 20:33:29;;;;;;;31.15;22.08;;;;;;;5.18;100.00;97118.22;10366013;28;20037;-49
2024/01/04 20:38:28;;;;;;;6.75;5.10;;;;;;;5.40;100.00;97155.34;10366366;28;20072;-49
2024/01/04 20:43:27;;;;;;;7.40;5.35;;;;;;;5.74;100.00;97159.94;10364394;28;20048;-48
2024/01/04 20:48:25;;;;;;;4.97;4.30;;;;;;;5.95;100.00;97166.97;10364953;28;20024;-49
2024/01/04 20:53:24;;;;;;;5.35;3.70;;;;;;;6.01;100.00;97155.00;10361767;28;20120;-47
2024/01/04 20:58:25;;;;;;;4.30;3.63;;;;;;;6.26;100.00;97166.31;10362634;28;20122;-49
2024/01/04 21:03:24;;;;;;;6.72;4.18;;;;;;;6.34;100.00;97160.34;10364806;28;20128;-49
2024/01/04 21:08:23;;;;;;;9.73;4.28;;;;;;;5.44;100.00;96984.66;10362519;28;20070;-49
2024/01/04 21:13:22;;;;;;;9.00;4.63;;;;;;;6.42;100.00;97120.88;10364094;28;20064;-51
2024/01/04 21:18:20;;;;;;;8.20;5.50;;;;;;;6.78;100.00;97175.19;10363004;28;20025;-48
2024/01/04 21:23:19;;;;;;;8.23;5.00;;;;;;;6.78;100.00;97167.47;10362974;28;20539;-46
2024/01/04 21:28:18;;;;;;;7.25;3.65;;;;;;;6.90;100.00;97147.75;10362072;28;20108;-47
2024/01/04 21:33:17;;;;;;;7.07;4.82;;;;;;;6.97;100.00;97162.38;10361631;28;20021;-47
2024/01/04 21:38:16;;;;;;;7.90;5.18;;;;;;;7.02;97.33;97160.69;10364059;28;20870;-49
2024/01/04 21:43:15;;;;;;;12.15;8.43;;;;;;;7.23;97.62;97172.78;10363619;28;20430;-48
2024/01/04 21:48:15;;;;;;;9.85;7.28;;;;;;;7.08;96.66;97134.03;10363832;28;20029;-49
2024/01/04 21:53:14;;;;;;;6.25;3.72;;;;;;;7.39;97.90;97186.59;10360532;28;20471;-48
2024/01/04 21:58:13;;;;;;;6.13;4.00;;;;;;;7.27;95.17;97186.56;10363327;28;20494;-49
2024/01/04 22:03:12;;;;;;;4.45;3.10;;;;;;;7.37;94.57;97188.31;10363469;28;20498;-48
2024/01/04 22:08:11;;;;;;;7.72;5.40;;;;;;;7.61;95.39;97183.22;10361136;28;20021;-48
2024/01/04 22:13:10;;;;;;;7.35;6.22;;;;;;;7.70;94.00;97191.84;10363649;28;20768;-48
2024/01/04 22:18:09;;;;;;;16.27;12.73;;;;;;;7.50;94.55;97128.16;10363849;28;20033;-48
2024/01/04 22:23:08;;;;;;;5.57;2.90;;;;;;;7.54;92.42;97123.81;10371691;28;20044;-50
2024/01/04 22:28:07;;;;;;;6.75;3.05;;;;;;;7.99;93.11;97194.44;10372368;28;20060;-48
2024/01/04 22:33:06;;;;;;;16.67;9.32;;;;;;;7.91;91.60;97191.88;10370108;28;20107;-49
2024/01/04 22:38:05;;;;;;;21.65;12.95;;;;;;;7.53;90.99;97190.09;10365643;28;20136;-48
2024/01/04 22:43:04;;;;;;;13.73;7.20;;;;;;;7.25;92.35;97202.03;10365457;28;20056;-47
2024/01/04 22:48:04;;;;;;;6.82;4.47;;;;;;;7.34;89.94;97203.81;10364864;28;20053;-48
2024/01/04 22:53:03;;;;;;;7.05;3.90;;;;;;;7.34;91.66;97188.31;10366920;28;20064;-47
2024/01/04 22:58:02;;;;;;;4.63;3.33;;;;;;;7.73;88.56;97235.75;10369297;28;20072;-47
2024/01/04 23:03:02;;;;;;;19.00;11.38;;;;;;;7.86;91.04;97253.00;10366369;28;20123;-47
2024/01/04 23:08:01;;;;;;;9.63;6.20;;;;;;;7.43;91.23;97235.69;10367818;28;20549;-47